sensor_id;sensor_type;location;lat;lon;timestamp;pressure;altitude;pressure_sealevel;temperature;humidity
43217;BME280;60511;42.686;23.300;2023-04-21T00:01:19;94286.66;;;23.45;33.74
43217;BME280;60511;42.686;23.300;2023-04-21T00:03:21;94286.28;;;23.46;33.35
43217;BME280;60511;42.686;23.300;2023-04-21T00:05:23;94293.22;;;23.47;33.61
43217;BME280;60511;42.686;23.300;2023-04-21T00:07:24;94255.38;;;23.21;33.56
43217;BME280;60511;42.686;23.300;2023-04-21T00:09:25;94288.84;;;23.39;33.53
43217;BME280;60511;42.686;23.300;2023-04-21T00:11:26;94251.91;;;23.20;33.43
43217;BME280;60511;42.686;23.300;2023-04-21T00:13:27;94258.13;;;23.24;33.46
43217;BME280;60511;42.686;23.300;2023-04-21T00:15:27;94288.22;;;23.46;33.66
43217;BME280;60511;42.686;23.300;2023-04-21T00:17:28;94288.56;;;23.44;33.43
43217;BME280;60511;42.686;23.300;2023-04-21T00:19:28;94287.00;;;23.43;33.20
43217;BME280;60511;42.686;23.300;2023-04-21T00:21:29;94286.66;;;23.45;33.36
43217;BME280;60511;42.686;23.300;2023-04-21T00:23:30;94271.81;;;23.35;33.47
43217;BME280;60511;42.686;23.300;2023-04-21T00:25:30;94277.22;;;23.35;33.37
43217;BME280;60511;42.686;23.300;2023-04-21T00:27:30;94287.38;;;23.42;33.27
43217;BME280;60511;42.686;23.300;2023-04-21T00:29:31;94269.34;;;23.26;33.24
43217;BME280;60511;42.686;23.300;2023-04-21T00:31:31;94265.22;;;23.33;33.66
43217;BME280;60511;42.686;23.300;2023-04-21T00:33:32;94251.63;;;23.25;33.21
43217;BME280;60511;42.686;23.300;2023-04-21T00:35:32;94262.44;;;23.29;33.36
43217;BME280;60511;42.686;23.300;2023-04-21T00:37:33;94289.47;;;23.52;33.31
43217;BME280;60511;42.686;23.300;2023-04-21T00:39:33;94285.50;;;23.46;33.27
43217;BME280;60511;42.686;23.300;2023-04-21T00:41:35;94288.94;;;23.43;33.53
43217;BME280;60511;42.686;23.300;2023-04-21T00:43:36;94291.34;;;23.48;33.26
43217;BME280;60511;42.686;23.300;2023-04-21T00:45:36;94296.34;;;23.50;33.38
43217;BME280;60511;42.686;23.300;2023-04-21T00:47:37;94292.53;;;23.51;33.39
43217;BME280;60511;42.686;23.300;2023-04-21T00:49:37;94253.09;;;23.23;33.24
43217;BME280;60511;42.686;23.300;2023-04-21T00:51:38;94295.28;;;23.54;33.30
43217;BME280;60511;42.686;23.300;2023-04-21T00:53:38;94281.06;;;23.57;33.27
43217;BME280;60511;42.686;23.300;2023-04-21T00:55:39;94257.59;;;23.38;33.21
43217;BME280;60511;42.686;23.300;2023-04-21T00:57:40;94275.56;;;23.50;33.40
43217;BME280;60511;42.686;23.300;2023-04-21T00:59:40;94273.50;;;23.43;33.32
43217;BME280;60511;42.686;23.300;2023-04-21T01:01:42;94243.69;;;23.36;33.29
43217;BME280;60511;42.686;23.300;2023-04-21T01:03:44;94246.81;;;23.38;33.16
43217;BME280;60511;42.686;23.300;2023-04-21T01:05:45;94271.28;;;23.49;32.94
43217;BME280;60511;42.686;23.300;2023-04-21T01:07:46;94259.56;;;23.41;33.04
43217;BME280;60511;42.686;23.300;2023-04-21T01:09:47;94276.38;;;23.54;33.26
43217;BME280;60511;42.686;23.300;2023-04-21T01:12:07;94245.19;;;23.34;33.06
43217;BME280;60511;42.686;23.300;2023-04-21T01:14:08;94262.28;;;23.41;33.09
43217;BME280;60511;42.686;23.300;2023-04-21T01:16:15;94226.91;;;23.23;33.00
43217;BME280;60511;42.686;23.300;2023-04-21T01:18:16;94270.09;;;23.46;32.74
43217;BME280;60511;42.686;23.300;2023-04-21T01:20:17;94264.31;;;23.48;33.08
43217;BME280;60511;42.686;23.300;2023-04-21T01:22:17;94170.22;;;22.81;33.07
43217;BME280;60511;42.686;23.300;2023-04-21T01:24:18;94277.84;;;23.48;33.01
43217;BME280;60511;42.686;23.300;2023-04-21T01:26:20;94249.75;;;23.30;32.78
43217;BME280;60511;42.686;23.300;2023-04-21T01:28:22;94277.41;;;23.46;33.28
43217;BME280;60511;42.686;23.300;2023-04-21T01:30:23;94259.94;;;23.40;33.08
43217;BME280;60511;42.686;23.300;2023-04-21T01:32:26;94243.44;;;23.22;33.11
43217;BME280;60511;42.686;23.300;2023-04-21T01:34:29;94274.22;;;23.40;33.27
43217;BME280;60511;42.686;23.300;2023-04-21T01:36:29;94263.44;;;23.40;33.08
43217;BME280;60511;42.686;23.300;2023-04-21T01:38:30;94209.56;;;23.01;32.92
43217;BME280;60511;42.686;23.300;2023-04-21T01:40:31;94222.72;;;23.06;32.69
43217;BME280;60511;42.686;23.300;2023-04-21T01:42:32;94263.34;;;23.37;32.97
43217;BME280;60511;42.686;23.300;2023-04-21T01:44:33;94230.91;;;23.10;32.96
43217;BME280;60511;42.686;23.300;2023-04-21T01:46:34;94223.63;;;23.14;32.71
43217;BME280;60511;42.686;23.300;2023-04-21T01:48:35;94218.84;;;23.04;32.61
43217;BME280;60511;42.686;23.300;2023-04-21T01:50:36;94187.97;;;22.82;32.94
43217;BME280;60511;42.686;23.300;2023-04-21T01:52:36;94242.97;;;23.16;32.67
43217;BME280;60511;42.686;23.300;2023-04-21T01:54:37;94221.97;;;23.06;32.97
43217;BME280;60511;42.686;23.300;2023-04-21T01:56:37;94242.59;;;23.18;32.73
43217;BME280;60511;42.686;23.300;2023-04-21T01:58:38;94243.38;;;23.18;33.09
43217;BME280;60511;42.686;23.300;2023-04-21T02:00:38;94253.94;;;23.27;32.66
43217;BME280;60511;42.686;23.300;2023-04-21T02:02:39;94266.00;;;23.33;33.04
43217;BME280;60511;42.686;23.300;2023-04-21T02:04:39;94250.34;;;23.19;32.83
43217;BME280;60511;42.686;23.300;2023-04-21T02:06:39;94247.81;;;23.30;33.35
43217;BME280;60511;42.686;23.300;2023-04-21T02:08:40;94258.28;;;23.32;32.93
43217;BME280;60511;42.686;23.300;2023-04-21T02:10:40;94266.06;;;23.37;33.56
43217;BME280;60511;42.686;23.300;2023-04-21T02:12:41;94241.16;;;23.24;32.79
43217;BME280;60511;42.686;23.300;2023-04-21T02:14:41;94207.53;;;22.98;33.18
43217;BME280;60511;42.686;23.300;2023-04-21T02:16:42;94250.03;;;23.24;33.00
43217;BME280;60511;42.686;23.300;2023-04-21T02:18:42;94253.94;;;23.27;32.85
43217;BME280;60511;42.686;23.300;2023-04-21T02:20:43;94210.66;;;23.00;32.83
43217;BME280;60511;42.686;23.300;2023-04-21T02:22:44;94262.59;;;23.36;33.15
43217;BME280;60511;42.686;23.300;2023-04-21T02:24:44;94261.81;;;23.36;32.82
43217;BME280;60511;42.686;23.300;2023-04-21T02:26:45;94231.75;;;23.14;32.79
43217;BME280;60511;42.686;23.300;2023-04-21T02:28:45;94265.28;;;23.36;32.95
43217;BME280;60511;42.686;23.300;2023-04-21T02:30:46;94116.66;;;22.37;33.32
43217;BME280;60511;42.686;23.300;2023-04-21T02:32:47;94241.59;;;23.26;32.65
43217;BME280;60511;42.686;23.300;2023-04-21T02:34:47;94243.19;;;23.31;32.92
43217;BME280;60511;42.686;23.300;2023-04-21T02:36:47;94248.72;;;23.38;32.92
43217;BME280;60511;42.686;23.300;2023-04-21T02:38:48;94237.28;;;23.21;32.79
43217;BME280;60511;42.686;23.300;2023-04-21T02:40:48;94251.28;;;23.31;33.26
43217;BME280;60511;42.686;23.300;2023-04-21T02:42:49;94238.47;;;23.24;33.04
43217;BME280;60511;42.686;23.300;2023-04-21T02:44:50;94207.94;;;23.00;33.06
43217;BME280;60511;42.686;23.300;2023-04-21T02:46:50;94226.00;;;23.16;33.04
43217;BME280;60511;42.686;23.300;2023-04-21T02:48:51;94257.84;;;23.30;32.75
43217;BME280;60511;42.686;23.300;2023-04-21T02:50:51;94249.25;;;23.24;32.67
43217;BME280;60511;42.686;23.300;2023-04-21T02:52:55;94264.94;;;23.38;32.29
43217;BME280;60511;42.686;23.300;2023-04-21T02:54:55;94268.06;;;23.40;32.39
43217;BME280;60511;42.686;23.300;2023-04-21T02:56:55;94184.50;;;22.81;32.80
43217;BME280;60511;42.686;23.300;2023-04-21T02:58:56;94272.38;;;23.44;32.72
43217;BME280;60511;42.686;23.300;2023-04-21T03:00:56;94234.56;;;23.21;32.46
43217;BME280;60511;42.686;23.300;2023-04-21T03:02:57;94243.44;;;23.22;32.54
43217;BME280;60511;42.686;23.300;2023-04-21T03:04:58;94233.72;;;23.17;32.65
43217;BME280;60511;42.686;23.300;2023-04-21T03:06:58;94265.38;;;23.43;32.50
43217;BME280;60511;42.686;23.300;2023-04-21T03:08:59;94263.50;;;23.44;32.33
43217;BME280;60511;42.686;23.300;2023-04-21T03:11:00;94206.50;;;23.03;32.28
43217;BME280;60511;42.686;23.300;2023-04-21T03:13:00;94261.81;;;23.36;32.67
43217;BME280;60511;42.686;23.300;2023-04-21T03:15:00;94243.50;;;23.25;32.21
43217;BME280;60511;42.686;23.300;2023-04-21T03:17:01;94227.91;;;23.15;32.54
43217;BME280;60511;42.686;23.300;2023-04-21T03:19:01;94240.81;;;23.25;32.45
43217;BME280;60511;42.686;23.300;2023-04-21T03:21:02;94247.06;;;23.30;32.46
43217;BME280;60511;42.686;23.300;2023-04-21T03:23:02;94188.78;;;22.82;32.67
43217;BME280;60511;42.686;23.300;2023-04-21T03:25:04;94260.31;;;23.38;32.30
43217;BME280;60511;42.686;23.300;2023-04-21T03:27:05;94245.91;;;23.31;32.59
43217;BME280;60511;42.686;23.300;2023-04-21T03:29:05;94267.72;;;23.45;32.99
43217;BME280;60511;42.686;23.300;2023-04-21T03:31:06;94266.91;;;23.41;32.62
43217;BME280;60511;42.686;23.300;2023-04-21T03:33:06;94246.81;;;23.15;32.78
43217;BME280;60511;42.686;23.300;2023-04-21T03:35:07;94267.50;;;23.31;32.95
43217;BME280;60511;42.686;23.300;2023-04-21T03:37:07;94251.00;;;23.13;32.75
43217;BME280;60511;42.686;23.300;2023-04-21T03:39:07;94274.81;;;23.30;32.71
43217;BME280;60511;42.686;23.300;2023-04-21T03:41:08;94241.28;;;23.08;33.02
43217;BME280;60511;42.686;23.300;2023-04-21T03:43:08;94224.66;;;23.06;32.92
43217;BME280;60511;42.686;23.300;2023-04-21T03:45:09;94275.78;;;23.41;32.58
43217;BME280;60511;42.686;23.300;2023-04-21T03:47:10;94267.09;;;23.29;32.31
43217;BME280;60511;42.686;23.300;2023-04-21T03:49:10;94270.56;;;23.29;32.67
43217;BME280;60511;42.686;23.300;2023-04-21T03:51:11;94249.19;;;23.20;32.31
43217;BME280;60511;42.686;23.300;2023-04-21T03:53:11;94280.34;;;23.37;32.31
43217;BME280;60511;42.686;23.300;2023-04-21T03:55:12;94236.22;;;23.06;32.32
43217;BME280;60511;42.686;23.300;2023-04-21T03:57:13;94243.19;;;23.08;32.28
43217;BME280;60511;42.686;23.300;2023-04-21T03:59:13;94283.88;;;23.41;32.39
43217;BME280;60511;42.686;23.300;2023-04-21T04:01:14;94289.66;;;23.40;32.60
43217;BME280;60511;42.686;23.300;2023-04-21T04:03:14;94273.16;;;23.22;32.36
43217;BME280;60511;42.686;23.300;2023-04-21T04:05:15;94266.84;;;23.14;32.44
43217;BME280;60511;42.686;23.300;2023-04-21T04:07:15;94264.97;;;23.18;32.44
43217;BME280;60511;42.686;23.300;2023-04-21T04:09:17;94248.13;;;23.02;32.29
43217;BME280;60511;42.686;23.300;2023-04-21T04:11:18;94270.72;;;23.17;32.67
43217;BME280;60511;42.686;23.300;2023-04-21T04:13:18;94298.88;;;23.39;32.26
43217;BME280;60511;42.686;23.300;2023-04-21T04:15:20;94296.84;;;23.32;32.60
43217;BME280;60511;42.686;23.300;2023-04-21T04:17:21;94266.00;;;23.10;33.03
43217;BME280;60511;42.686;23.300;2023-04-21T04:19:21;94305.13;;;23.43;32.90
43217;BME280;60511;42.686;23.300;2023-04-21T04:21:22;94280.09;;;23.23;32.56
43217;BME280;60511;42.686;23.300;2023-04-21T04:23:22;94290.19;;;23.26;32.56
43217;BME280;60511;42.686;23.300;2023-04-21T04:25:22;94311.13;;;23.33;32.57
43217;BME280;60511;42.686;23.300;2023-04-21T04:27:23;94322.00;;;23.36;32.42
43217;BME280;60511;42.686;23.300;2023-04-21T04:29:24;94303.25;;;23.24;32.53
43217;BME280;60511;42.686;23.300;2023-04-21T04:31:26;94291.19;;;23.18;32.59
43217;BME280;60511;42.686;23.300;2023-04-21T04:33:29;94320.13;;;23.40;32.46
43217;BME280;60511;42.686;23.300;2023-04-21T04:35:30;94293.16;;;23.21;32.44
43217;BME280;60511;42.686;23.300;2023-04-21T04:37:31;94324.78;;;23.40;32.43
43217;BME280;60511;42.686;23.300;2023-04-21T04:39:33;94311.53;;;23.35;32.33
43217;BME280;60511;42.686;23.300;2023-04-21T04:41:36;94277.88;;;23.05;32.39
43217;BME280;60511;42.686;23.300;2023-04-21T04:43:37;94283.75;;;23.11;32.32
43217;BME280;60511;42.686;23.300;2023-04-21T04:45:38;94297.03;;;23.20;32.41
43217;BME280;60511;42.686;23.300;2023-04-21T04:47:38;94330.09;;;23.36;32.33
43217;BME280;60511;42.686;23.300;2023-04-21T04:49:39;94337.84;;;23.38;32.44
43217;BME280;60511;42.686;23.300;2023-04-21T04:51:40;94334.78;;;23.39;32.42
43217;BME280;60511;42.686;23.300;2023-04-21T04:53:40;94333.66;;;23.40;32.58
43217;BME280;60511;42.686;23.300;2023-04-21T04:55:41;94213.06;;;22.63;32.83
43217;BME280;60511;42.686;23.300;2023-04-21T04:57:41;94322.34;;;23.35;32.50
43217;BME280;60511;42.686;23.300;2023-04-21T04:59:41;94332.56;;;23.45;32.61
43217;BME280;60511;42.686;23.300;2023-04-21T05:01:42;94338.31;;;23.43;32.31
43217;BME280;60511;42.686;23.300;2023-04-21T05:03:43;94299.31;;;23.18;32.54
43217;BME280;60511;42.686;23.300;2023-04-21T05:05:44;94300.91;;;23.22;32.09
43217;BME280;60511;42.686;23.300;2023-04-21T05:07:45;94316.66;;;23.40;32.62
43217;BME280;60511;42.686;23.300;2023-04-21T05:09:45;94336.03;;;23.45;32.31
43217;BME280;60511;42.686;23.300;2023-04-21T05:11:46;94339.16;;;23.47;32.38
43217;BME280;60511;42.686;23.300;2023-04-21T05:13:46;94313.81;;;23.33;32.57
43217;BME280;60511;42.686;23.300;2023-04-21T05:15:47;94342.66;;;23.48;32.41
43217;BME280;60511;42.686;23.300;2023-04-21T05:17:47;94341.84;;;23.47;32.18
43217;BME280;60511;42.686;23.300;2023-04-21T05:19:48;94345.78;;;23.50;32.31
43217;BME280;60511;42.686;23.300;2023-04-21T05:21:48;94325.13;;;23.38;32.32
43217;BME280;60511;42.686;23.300;2023-04-21T05:23:49;94343.78;;;23.47;32.43
43217;BME280;60511;42.686;23.300;2023-04-21T05:25:50;94304.09;;;23.28;32.54
43217;BME280;60511;42.686;23.300;2023-04-21T05:27:50;94300.63;;;23.27;32.18
43217;BME280;60511;42.686;23.300;2023-04-21T05:29:51;94308.84;;;23.35;32.09
43217;BME280;60511;42.686;23.300;2023-04-21T05:31:51;94340.84;;;23.56;32.71
43217;BME280;60511;42.686;23.300;2023-04-21T05:33:52;94304.28;;;23.39;32.43
43217;BME280;60511;42.686;23.300;2023-04-21T05:35:52;94315.22;;;23.46;32.47
43217;BME280;60511;42.686;23.300;2023-04-21T05:37:52;94338.28;;;23.63;32.63
43217;BME280;60511;42.686;23.300;2023-04-21T05:39:54;94329.75;;;23.61;32.31
43217;BME280;60511;42.686;23.300;2023-04-21T05:41:54;94336.69;;;23.62;31.83
43217;BME280;60511;42.686;23.300;2023-04-21T05:43:55;94342.22;;;23.69;32.03
43217;BME280;60511;42.686;23.300;2023-04-21T05:45:55;94309.09;;;23.49;31.83
43217;BME280;60511;42.686;23.300;2023-04-21T05:47:56;94324.75;;;23.63;31.94
43217;BME280;60511;42.686;23.300;2023-04-21T05:49:57;94317.38;;;23.60;32.03
43217;BME280;60511;42.686;23.300;2023-04-21T05:51:59;94303.81;;;23.56;31.98
43217;BME280;60511;42.686;23.300;2023-04-21T05:54:00;94340.47;;;23.77;32.06
43217;BME280;60511;42.686;23.300;2023-04-21T05:56:00;94332.69;;;23.75;32.07
43217;BME280;60511;42.686;23.300;2023-04-21T05:58:01;94303.41;;;23.54;32.02
43217;BME280;60511;42.686;23.300;2023-04-21T06:00:01;94336.13;;;23.72;32.01
43217;BME280;60511;42.686;23.300;2023-04-21T06:02:02;94339.31;;;23.78;31.85
43217;BME280;60511;42.686;23.300;2023-04-21T06:04:03;94303.84;;;23.60;31.89
43217;BME280;60511;42.686;23.300;2023-04-21T06:06:04;94289.75;;;23.47;31.61
43217;BME280;60511;42.686;23.300;2023-04-21T06:08:05;94321.81;;;23.72;31.75
43217;BME280;60511;42.686;23.300;2023-04-21T06:10:06;94269.50;;;23.34;31.45
43217;BME280;60511;42.686;23.300;2023-04-21T06:12:06;94340.53;;;23.80;31.66
43217;BME280;60511;42.686;23.300;2023-04-21T06:14:07;94318.41;;;23.75;31.56
43217;BME280;60511;42.686;23.300;2023-04-21T06:16:07;94312.16;;;23.71;31.45
43217;BME280;60511;42.686;23.300;2023-04-21T06:18:08;94329.75;;;23.84;31.45
43217;BME280;60511;42.686;23.300;2023-04-21T06:20:09;94335.16;;;23.84;31.59
43217;BME280;60511;42.686;23.300;2023-04-21T06:22:09;94249.69;;;23.26;31.77
43217;BME280;60511;42.686;23.300;2023-04-21T06:24:10;94308.69;;;23.70;31.53
43217;BME280;60511;42.686;23.300;2023-04-21T06:26:10;94337.50;;;23.85;31.62
43217;BME280;60511;42.686;23.300;2023-04-21T06:28:12;94321.56;;;23.77;31.62
43217;BME280;60511;42.686;23.300;2023-04-21T06:30:12;94292.69;;;23.61;31.73
43217;BME280;60511;42.686;23.300;2023-04-21T06:32:13;94297.81;;;23.66;31.63
43217;BME280;60511;42.686;23.300;2023-04-21T06:34:13;94311.00;;;23.72;31.51
43217;BME280;60511;42.686;23.300;2023-04-21T06:36:14;94305.97;;;23.70;31.52
43217;BME280;60511;42.686;23.300;2023-04-21T06:38:15;94286.25;;;23.70;31.60
43217;BME280;60511;42.686;23.300;2023-04-21T06:40:16;94308.94;;;23.84;31.79
43217;BME280;60511;42.686;23.300;2023-04-21T06:42:16;94296.44;;;23.76;31.71
43217;BME280;60511;42.686;23.300;2023-04-21T06:44:17;94320.25;;;23.94;31.46
43217;BME280;60511;42.686;23.300;2023-04-21T06:46:18;94260.53;;;23.53;31.54
43217;BME280;60511;42.686;23.300;2023-04-21T06:48:18;94322.59;;;23.95;31.33
43217;BME280;60511;42.686;23.300;2023-04-21T06:50:18;94293.72;;;23.76;31.51
43217;BME280;60511;42.686;23.300;2023-04-21T06:52:19;94297.72;;;23.82;31.74
43217;BME280;60511;42.686;23.300;2023-04-21T06:54:19;94329.13;;;23.94;32.02
43217;BME280;60511;42.686;23.300;2023-04-21T06:56:20;94322.19;;;23.93;31.65
43217;BME280;60511;42.686;23.300;2023-04-21T06:58:20;94319.47;;;23.93;31.51
43217;BME280;60511;42.686;23.300;2023-04-21T07:00:21;94273.78;;;23.61;31.55
43217;BME280;60511;42.686;23.300;2023-04-21T07:02:21;94250.03;;;23.47;31.34
43217;BME280;60511;42.686;23.300;2023-04-21T07:04:22;94312.47;;;23.89;31.43
43217;BME280;60511;42.686;23.300;2023-04-21T07:06:24;94311.72;;;23.92;31.23
43217;BME280;60511;42.686;23.300;2023-04-21T07:08:24;94211.03;;;23.22;31.27
43217;BME280;60511;42.686;23.300;2023-04-21T07:10:26;94314.78;;;23.90;31.26
43217;BME280;60511;42.686;23.300;2023-04-21T07:12:26;94296.00;;;23.74;31.38
43217;BME280;60511;42.686;23.300;2023-04-21T07:14:27;94312.06;;;23.86;31.24
43217;BME280;60511;42.686;23.300;2023-04-21T07:16:28;94315.19;;;23.89;31.36
43217;BME280;60511;42.686;23.300;2023-04-21T07:18:29;94315.53;;;23.87;31.00
43217;BME280;60511;42.686;23.300;2023-04-21T07:20:30;94318.22;;;23.87;31.41
43217;BME280;60511;42.686;23.300;2023-04-21T07:22:30;94298.78;;;23.78;31.21
43217;BME280;60511;42.686;23.300;2023-04-21T07:24:30;94293.59;;;23.69;31.13
43217;BME280;60511;42.686;23.300;2023-04-21T07:26:33;94319.00;;;23.88;31.13
43217;BME280;60511;42.686;23.300;2023-04-21T07:28:33;94292.47;;;23.70;30.99
43217;BME280;60511;42.686;23.300;2023-04-21T07:30:34;94196.47;;;23.03;30.88
43217;BME280;60511;42.686;23.300;2023-04-21T07:32:35;94293.94;;;23.67;31.11
43217;BME280;60511;42.686;23.300;2023-04-21T07:34:37;94315.06;;;23.81;31.02
43217;BME280;60511;42.686;23.300;2023-04-21T07:36:38;94284.66;;;23.65;31.08
43217;BME280;60511;42.686;23.300;2023-04-21T07:38:38;94316.97;;;23.81;31.03
43217;BME280;60511;42.686;23.300;2023-04-21T07:40:42;94294.78;;;23.72;30.92
43217;BME280;60511;42.686;23.300;2023-04-21T07:42:42;94274.53;;;23.58;30.94
43217;BME280;60511;42.686;23.300;2023-04-21T07:44:43;94315.78;;;23.78;30.81
43217;BME280;60511;42.686;23.300;2023-04-21T07:46:43;94301.34;;;23.71;30.76
43217;BME280;60511;42.686;23.300;2023-04-21T07:48:44;94293.53;;;23.65;31.09
43217;BME280;60511;42.686;23.300;2023-04-21T07:50:45;94277.25;;;23.62;30.49
43217;BME280;60511;42.686;23.300;2023-04-21T07:52:45;94263.22;;;23.53;30.91
43217;BME280;60511;42.686;23.300;2023-04-21T07:54:47;94291.31;;;23.71;30.71
43217;BME280;60511;42.686;23.300;2023-04-21T07:56:47;94289.34;;;23.68;30.74
43217;BME280;60511;42.686;23.300;2023-04-21T07:58:48;94315.13;;;23.85;30.72
43217;BME280;60511;42.686;23.300;2023-04-21T08:00:48;94265.59;;;23.54;30.78
43217;BME280;60511;42.686;23.300;2023-04-21T08:02:49;94307.94;;;23.73;30.99
43217;BME280;60511;42.686;23.300;2023-04-21T08:04:49;94294.69;;;23.64;30.60
43217;BME280;60511;42.686;23.300;2023-04-21T08:06:50;94311.06;;;23.75;31.12
43217;BME280;60511;42.686;23.300;2023-04-21T08:08:51;94315.34;;;23.76;30.74
43217;BME280;60511;42.686;23.300;2023-04-21T08:10:53;94292.75;;;23.65;30.94
43217;BME280;60511;42.686;23.300;2023-04-21T08:12:53;94302.13;;;23.71;30.57
43217;BME280;60511;42.686;23.300;2023-04-21T08:14:54;94310.75;;;23.77;30.64
43217;BME280;60511;42.686;23.300;2023-04-21T08:16:54;94290.06;;;23.65;30.58
43217;BME280;60511;42.686;23.300;2023-04-21T08:18:55;94316.66;;;23.86;30.77
43217;BME280;60511;42.686;23.300;2023-04-21T08:20:55;94305.75;;;23.79;30.86
43217;BME280;60511;42.686;23.300;2023-04-21T08:22:58;94311.25;;;23.86;30.70
43217;BME280;60511;42.686;23.300;2023-04-21T08:24:58;94250.81;;;23.48;30.74
43217;BME280;60511;42.686;23.300;2023-04-21T08:26:59;94310.91;;;23.88;30.89
43217;BME280;60511;42.686;23.300;2023-04-21T08:29:01;94308.97;;;23.88;30.79
43217;BME280;60511;42.686;23.300;2023-04-21T08:31:01;94276.19;;;23.66;30.89
43217;BME280;60511;42.686;23.300;2023-04-21T08:33:02;94259.44;;;23.57;30.56
43217;BME280;60511;42.686;23.300;2023-04-21T08:35:02;94312.47;;;23.89;30.65
43217;BME280;60511;42.686;23.300;2023-04-21T08:37:03;94282.84;;;23.73;30.66
43217;BME280;60511;42.686;23.300;2023-04-21T08:39:03;94305.44;;;23.84;30.77
43217;BME280;60511;42.686;23.300;2023-04-21T08:41:04;94297.22;;;23.77;30.98
43217;BME280;60511;42.686;23.300;2023-04-21T08:43:05;94310.13;;;23.87;30.71
43217;BME280;60511;42.686;23.300;2023-04-21T08:45:06;94279.19;;;23.61;30.82
43217;BME280;60511;42.686;23.300;2023-04-21T08:47:09;94283.72;;;23.77;31.08
43217;BME280;60511;42.686;23.300;2023-04-21T08:49:11;94303.56;;;23.88;30.83
43217;BME280;60511;42.686;23.300;2023-04-21T08:51:17;94275.41;;;23.66;30.68
43217;BME280;60511;42.686;23.300;2023-04-21T08:53:20;94301.59;;;23.85;30.92
43217;BME280;60511;42.686;23.300;2023-04-21T08:55:31;94297.72;;;23.82;30.80
43217;BME280;60511;42.686;23.300;2023-04-21T08:57:32;94266.84;;;23.60;30.73
43217;BME280;60511;42.686;23.300;2023-04-21T08:59:33;94279.41;;;23.76;30.61
43217;BME280;60511;42.686;23.300;2023-04-21T09:02:12;94243.97;;;23.54;30.54
43217;BME280;60511;42.686;23.300;2023-04-21T09:04:16;94267.34;;;23.70;30.69
43217;BME280;60511;42.686;23.300;2023-04-21T09:06:17;94282.31;;;23.86;30.38
43217;BME280;60511;42.686;23.300;2023-04-21T09:08:18;94259.25;;;23.70;30.47
43217;BME280;60511;42.686;23.300;2023-04-21T09:10:22;94253.06;;;23.69;30.42
43217;BME280;60511;42.686;23.300;2023-04-21T09:12:23;94283.09;;;23.87;30.57
43217;BME280;60511;42.686;23.300;2023-04-21T09:14:33;94272.16;;;23.80;30.73
43217;BME280;60511;42.686;23.300;2023-04-21T09:16:34;94277.28;;;23.85;30.40
43217;BME280;60511;42.686;23.300;2023-04-21T09:18:36;94256.25;;;23.75;30.50
43217;BME280;60511;42.686;23.300;2023-04-21T09:20:39;94251.19;;;23.73;30.42
43217;BME280;60511;42.686;23.300;2023-04-21T09:22:40;94255.47;;;23.74;30.25
43217;BME280;60511;42.686;23.300;2023-04-21T09:24:47;94234.50;;;23.67;30.29
43217;BME280;60511;42.686;23.300;2023-04-21T09:26:49;94232.28;;;23.73;30.48
43217;BME280;60511;42.686;23.300;2023-04-21T09:28:51;94243.19;;;23.77;30.33
43217;BME280;60511;42.686;23.300;2023-04-21T09:30:54;94261.13;;;23.89;30.26
43217;BME280;60511;42.686;23.300;2023-04-21T09:32:56;94266.13;;;23.90;30.48
43217;BME280;60511;42.686;23.300;2023-04-21T09:35:00;94184.69;;;23.38;30.27
43217;BME280;60511;42.686;23.300;2023-04-21T09:37:01;94261.94;;;23.93;30.17
43217;BME280;60511;42.686;23.300;2023-04-21T09:39:03;94252.28;;;23.92;30.28
43217;BME280;60511;42.686;23.300;2023-04-21T09:41:03;94250.34;;;23.92;30.14
43217;BME280;60511;42.686;23.300;2023-04-21T09:43:04;94205.53;;;23.64;30.27
43217;BME280;60511;42.686;23.300;2023-04-21T09:45:06;94238.97;;;23.79;30.32
43217;BME280;60511;42.686;23.300;2023-04-21T09:47:09;94214.88;;;23.71;30.28
43217;BME280;60511;42.686;23.300;2023-04-21T09:49:12;94254.63;;;23.93;30.37
43217;BME280;60511;42.686;23.300;2023-04-21T09:51:15;94256.53;;;23.93;30.22
43217;BME280;60511;42.686;23.300;2023-04-21T09:53:17;94257.31;;;23.93;30.50
43217;BME280;60511;42.686;23.300;2023-04-21T09:55:26;94249.22;;;23.93;30.22
43217;BME280;60511;42.686;23.300;2023-04-21T09:57:30;94245.31;;;23.91;30.50
43217;BME280;60511;42.686;23.300;2023-04-21T09:59:34;94220.75;;;23.76;30.47
43217;BME280;60511;42.686;23.300;2023-04-21T10:01:35;94085.03;;;22.80;30.32
43217;BME280;60511;42.686;23.300;2023-04-21T10:03:38;94249.63;;;23.95;30.36
43217;BME280;60511;42.686;23.300;2023-04-21T10:05:43;94234.09;;;23.89;30.19
43217;BME280;60511;42.686;23.300;2023-04-21T10:07:44;94227.84;;;23.84;30.18
43217;BME280;60511;42.686;23.300;2023-04-21T10:09:53;94241.50;;;23.95;30.11
43217;BME280;60511;42.686;23.300;2023-04-21T10:11:55;94230.97;;;23.86;29.83
43217;BME280;60511;42.686;23.300;2023-04-21T10:13:57;94244.94;;;23.92;30.19
43217;BME280;60511;42.686;23.300;2023-04-21T10:16:06;94102.84;;;23.08;30.39
43217;BME280;60511;42.686;23.300;2023-04-21T10:18:18;94199.38;;;23.67;30.13
43217;BME280;60511;42.686;23.300;2023-04-21T10:20:18;94225.56;;;23.86;30.19
43217;BME280;60511;42.686;23.300;2023-04-21T10:22:27;94195.13;;;23.66;29.98
43217;BME280;60511;42.686;23.300;2023-04-21T10:24:29;94160.03;;;23.40;30.10
43217;BME280;60511;42.686;23.300;2023-04-21T10:26:33;94228.94;;;23.80;29.90
43217;BME280;60511;42.686;23.300;2023-04-21T10:30:45;94243.38;;;23.91;29.90
43217;BME280;60511;42.686;23.300;2023-04-21T10:32:46;94170.50;;;23.45;29.75
43217;BME280;60511;42.686;23.300;2023-04-21T10:34:47;94130.13;;;23.29;30.00
43217;BME280;60511;42.686;23.300;2023-04-21T10:37:06;94135.50;;;23.25;29.65